createdAt,value
2023-03-27T00:03:26.329Z,91.82
2023-03-27T00:08:41.723Z,92.10
2023-03-27T00:13:54.997Z,92.67
2023-03-27T00:19:20.270Z,93.12
2023-03-27T00:25:04.444Z,93.46
2023-03-27T00:30:11.005Z,93.93
2023-03-27T00:35:14.814Z,94.26
2023-03-27T00:40:53.614Z,93.85
2023-03-27T00:46:21.948Z,93.54
2023-03-27T00:51:58.240Z,93.16
2023-03-27T00:57:22.051Z,91.85
2023-03-27T01:02:45.690Z,91.75
2023-03-27T01:08:02.690Z,92.35
2023-03-27T01:13:20.892Z,91.19
2023-03-27T01:18:41.107Z,91.90
2023-03-27T01:24:53.702Z,92.40
2023-03-27T01:30:24.590Z,92.33
2023-03-27T01:36:20.069Z,93.15
2023-03-27T01:41:55.631Z,92.22
2023-03-27T01:47:32.707Z,92.53
2023-03-27T01:52:42.244Z,92.45
2023-03-27T01:58:34.145Z,91.89
2023-03-27T02:04:20.801Z,92.15
2023-03-27T02:09:58.400Z,92.61
2023-03-27T02:15:43.695Z,92.66
2023-03-27T02:20:59.568Z,93.24
2023-03-27T02:26:03.957Z,93.82
2023-03-27T02:32:13.586Z,93.79
2023-03-27T02:38:23.630Z,93.01
2023-03-27T02:44:00.046Z,92.81
2023-03-27T02:49:36.569Z,93.24
2023-03-27T02:55:33.011Z,93.82
2023-03-27T03:00:51.932Z,94.13
2023-03-27T03:06:34.968Z,93.77
2023-03-27T03:11:57.528Z,93.42
2023-03-27T03:17:03.832Z,92.85
2023-03-27T03:22:15.634Z,91.86
2023-03-27T03:28:19.748Z,91.67
2023-03-27T03:33:57.297Z,93.49
2023-03-27T03:39:01.028Z,93.56
2023-03-27T03:44:24.778Z,93.50
2023-03-27T03:49:29.972Z,93.02
2023-03-27T03:54:54.003Z,93.75
2023-03-27T04:00:08.701Z,94.73
2023-03-27T04:05:22.791Z,96.31
2023-03-27T04:10:33.626Z,96.63
2023-03-27T04:15:52.923Z,97.15
2023-03-27T04:21:26.595Z,97.53
2023-03-27T04:27:08.427Z,97.85
2023-03-27T04:32:31.772Z,98.02
2023-03-27T04:38:17.525Z,99.08
2023-03-27T04:43:30.929Z,98.73
2023-03-27T04:49:39.516Z,98.49
2023-03-27T04:55:26.924Z,97.85
2023-03-27T05:00:44.038Z,99.14
2023-03-27T05:06:23.064Z,100.00
2023-03-27T05:12:26.642Z,100.00
2023-03-27T05:18:03.007Z,100.00
2023-03-27T05:24:01.086Z,100.00
2023-03-27T05:29:47.436Z,100.00
2023-03-27T05:35:20.498Z,100.00
2023-03-27T05:40:41.906Z,100.00
2023-03-27T05:46:42.814Z,100.00
2023-03-27T05:52:33.821Z,100.00
2023-03-27T05:58:11.589Z,100.00
2023-03-27T06:03:35.819Z,100.00
2023-03-27T06:08:52.995Z,100.00
2023-03-27T06:15:07.144Z,100.00
2023-03-27T06:20:52.018Z,100.00
2023-03-27T06:25:59.506Z,100.00
2023-03-27T06:31:39.334Z,100.00
2023-03-27T06:37:09.021Z,100.00
2023-03-27T06:43:17.528Z,100.00
2023-03-27T06:48:36.298Z,100.00
2023-03-27T06:53:55.297Z,100.00
2023-03-27T06:59:09.166Z,100.00
2023-03-27T07:04:16.853Z,100.00
2023-03-27T07:09:41.076Z,97.37
2023-03-27T07:15:36.500Z,96.18
2023-03-27T07:20:40.488Z,93.70
2023-03-27T07:25:53.425Z,92.48
2023-03-27T07:36:31.972Z,89.63
2023-03-27T07:42:02.528Z,87.77
2023-03-27T07:47:35.168Z,86.73
2023-03-27T07:53:34.093Z,85.55
2023-03-27T07:58:57.821Z,85.40
2023-03-27T08:04:07.591Z,84.93
2023-03-27T08:09:42.123Z,84.11
2023-03-27T08:15:09.950Z,83.38
2023-03-27T08:20:33.995Z,82.24
2023-03-27T08:25:50.385Z,81.41
2023-03-27T08:31:16.456Z,81.38
2023-03-27T08:36:53.931Z,79.85
2023-03-27T08:42:34.337Z,78.92
2023-03-27T08:47:52.344Z,79.08
2023-03-27T08:54:06.338Z,78.18
2023-03-27T08:59:33.167Z,77.50
2023-03-27T09:05:35.192Z,77.66
2023-03-27T09:10:50.971Z,77.21
2023-03-27T09:17:20.013Z,76.45
2023-03-27T09:23:34.673Z,76.22
2023-03-27T09:29:39.720Z,75.78
2023-03-27T09:35:22.460Z,75.44
2023-03-27T09:41:10.359Z,74.72
2023-03-27T09:46:20.309Z,74.66
2023-03-27T09:51:46.198Z,73.80
2023-03-27T09:57:16.579Z,73.18
2023-03-27T10:02:30.844Z,72.56
2023-03-27T10:07:40.774Z,71.74
2023-03-27T10:13:26.888Z,71.05
2023-03-27T10:18:50.656Z,71.00
2023-03-27T10:24:44.280Z,71.49
2023-03-27T10:30:45.435Z,71.04
2023-03-27T10:37:00.787Z,71.08
2023-03-27T10:42:48.627Z,71.84
2023-03-27T10:48:39.013Z,70.81
2023-03-27T10:54:02.206Z,69.06
2023-03-27T10:59:49.225Z,67.20
2023-03-27T11:05:43.440Z,68.01
2023-03-27T11:11:28.396Z,68.04
2023-03-27T11:16:59.673Z,67.22
2023-03-27T11:23:02.077Z,66.46
2023-03-27T11:28:34.122Z,64.52
2023-03-27T11:34:28.370Z,64.45
2023-03-27T11:40:00.465Z,64.43
2023-03-27T11:46:24.828Z,63.41
2023-03-27T11:51:34.853Z,64.01
2023-03-27T11:57:21.070Z,63.73
2023-03-27T12:03:31.909Z,63.78
2023-03-27T12:09:44.310Z,63.24
2023-03-27T12:15:58.348Z,62.02
2023-03-27T12:21:29.437Z,62.66
2023-03-27T12:28:04.925Z,62.68
2023-03-27T12:34:20.031Z,61.89
2023-03-27T12:39:56.823Z,61.42
2023-03-27T12:45:28.885Z,60.72
2023-03-27T12:51:03.205Z,61.07
2023-03-27T12:57:10.118Z,61.21
2023-03-27T13:03:37.072Z,61.26
2023-03-27T13:09:34.375Z,61.35
2023-03-27T13:15:47.597Z,62.26
2023-03-27T13:22:16.835Z,62.45
2023-03-27T13:28:16.264Z,62.59
2023-03-27T13:34:32.111Z,62.93
2023-03-27T13:40:41.417Z,62.35
2023-03-27T13:46:41.015Z,62.48
2023-03-27T13:52:51.081Z,63.25
2023-03-27T13:58:49.637Z,64.78
2023-03-27T14:04:47.540Z,64.28
2023-03-27T14:10:36.694Z,63.84
2023-03-27T14:16:42.426Z,63.64
2023-03-27T14:21:56.477Z,63.67
2023-03-27T14:27:41.436Z,64.39
2023-03-27T14:33:05.190Z,64.52
2023-03-27T14:38:25.010Z,66.19
2023-03-27T14:44:13.627Z,66.70
2023-03-27T14:49:36.059Z,67.60
2023-03-27T14:54:55.037Z,67.81
2023-03-27T15:00:22.427Z,67.31
2023-03-27T15:06:27.165Z,67.03
2023-03-27T15:12:25.784Z,67.77
2023-03-27T15:17:43.196Z,68.56
2023-03-27T15:23:26.365Z,69.27
2023-03-27T15:28:41.629Z,69.70
2023-03-27T15:34:51.838Z,70.02
2023-03-27T15:40:58.564Z,70.11
2023-03-27T15:46:42.730Z,69.22
2023-03-27T15:52:47.553Z,69.75
2023-03-27T15:58:35.979Z,70.08
2023-03-27T16:03:58.989Z,68.99
2023-03-27T16:10:12.492Z,69.10
2023-03-27T16:16:21.941Z,69.19
2023-03-27T16:22:26.367Z,68.89
2023-03-27T16:28:33.424Z,68.76
2023-03-27T16:33:45.292Z,68.50
2023-03-27T16:39:11.803Z,68.74
2023-03-27T16:44:41.284Z,68.52
2023-03-27T16:50:37.600Z,69.06
2023-03-27T16:56:18.742Z,67.97
2023-03-27T17:02:37.317Z,67.76
2023-03-27T17:08:52.554Z,67.71
2023-03-27T17:33:34.191Z,68.76
2023-03-27T17:39:41.287Z,69.28
2023-03-27T17:45:30.124Z,69.37
2023-03-27T17:51:53.198Z,68.94
2023-03-27T17:58:16.555Z,69.31
2023-03-27T18:04:58.275Z,69.60
2023-03-27T18:10:34.763Z,68.89
2023-03-27T18:16:21.809Z,67.83
2023-03-27T18:22:09.934Z,67.69
2023-03-27T18:28:01.505Z,67.31
2023-03-27T18:34:18.399Z,66.14
2023-03-27T18:39:47.448Z,66.07
2023-03-27T18:46:03.110Z,65.34
2023-03-27T18:57:38.933Z,64.57
2023-03-27T19:03:18.339Z,64.24
2023-03-27T19:08:33.562Z,63.21
2023-03-27T19:20:31.348Z,62.85
2023-03-27T19:25:55.594Z,62.21
2023-03-27T19:31:59.720Z,62.23
2023-03-27T19:38:10.513Z,61.63
2023-03-27T19:43:25.809Z,60.57
2023-03-27T19:49:02.453Z,59.78
2023-03-27T19:54:40.743Z,60.05
2023-03-27T20:00:58.907Z,59.27
2023-03-27T20:06:48.226Z,60.28
2023-03-27T20:12:57.824Z,60.14
2023-03-27T20:18:42.655Z,60.41
2023-03-27T20:24:39.748Z,60.56
2023-03-27T20:30:15.030Z,60.51
2023-03-27T20:35:37.881Z,60.78
2023-03-27T20:41:13.781Z,60.75
2023-03-27T20:46:37.603Z,61.02
2023-03-27T20:52:15.482Z,61.39
2023-03-27T20:58:11.254Z,61.80
2023-03-27T21:04:35.421Z,62.31
2023-03-27T21:10:15.592Z,62.57
2023-03-27T21:15:55.716Z,62.77
2023-03-27T21:21:39.985Z,63.26
2023-03-27T21:27:26.861Z,63.63
2023-03-27T21:32:53.767Z,64.17
2023-03-27T21:38:53.786Z,64.47
2023-03-27T21:44:11.511Z,64.88
2023-03-27T21:49:46.523Z,65.19
2023-03-27T21:55:40.505Z,65.28
2023-03-27T22:01:45.106Z,65.74
2023-03-27T22:07:14.153Z,66.19
2023-03-27T22:12:46.587Z,66.47
2023-03-27T22:18:50.710Z,66.59
2023-03-27T22:24:54.877Z,67.08
2023-03-27T22:30:18.824Z,67.31
2023-03-27T22:35:38.043Z,67.16
2023-03-27T22:41:01.760Z,67.84
2023-03-27T22:46:34.559Z,68.36
2023-03-27T22:51:41.123Z,68.30
2023-03-27T22:57:45.124Z,68.58
2023-03-27T23:03:45.043Z,68.61
2023-03-27T23:09:41.996Z,68.44
2023-03-27T23:15:30.231Z,69.08
2023-03-27T23:20:34.118Z,69.33
2023-03-27T23:25:42.561Z,69.66
2023-03-27T23:30:58.890Z,69.96
2023-03-27T23:36:10.514Z,69.93
2023-03-27T23:41:15.460Z,70.57
2023-03-27T23:46:19.063Z,71.23
2023-03-27T23:51:22.463Z,71.25
2023-03-27T23:56:25.905Z,71.52
